No particular awareness of the weather is required.    There are no Weather-warnings


Meteo18 Weather Cam more information Meteo18 Weather Cam


Thunder radar more information blitzortung!


Rain radar more information rain snow radar


Visit our other weather sites:

Template documentation
and downloads

And another site



Weather Underground History page Text

Daily Summary for June 30, 2017 Units:  English    Metric   Both
« Previous Day
Next Day »
Daily Weekly Monthly Yearly Custom
  High: Low: Average:
Temperature: 62.8 °F 53.6 °F 57 °F
Dew Point: 57.7 °F 50.5 °F 53.6 °F
Humidity: 95 % 79 % 89 %
Wind Speed: 16 mph 0 mph 5.5 mph
Wind Gust: 25 mph - -
Wind:- - SW
Pressure: 29.9 in 29.7 in -
Precipitation: 0.42 in    
Historical Graphs
 
 
Tabular Data for June 30, 2017
Time Temperature Dew Point Pressure Wind Wind Speed Wind Gust Humidity Rainfall Rate (Hourly)
00:02 57.6 °F 52.5 °F 29.7 in SSW 6 mph 16 mph 83 % 0 in
00:12 57.6 °F 52.2 °F 29.7 in SSW 10 mph 14 mph 82 % 0 in
00:17 57.2 °F 52.2 °F 29.7 in SSW 7 mph 16 mph 83 % 0 in
00:22 57 °F 52 °F 29.7 in SW 8 mph 16 mph 83 % 0 in
00:32 56.7 °F 51.6 °F 29.7 in South 6 mph 16 mph 83 % 0 in
00:42 55.8 °F 51.3 °F 29.7 in SSW 4 mph 16 mph 85 % 0 in
00:52 55.2 °F 51.4 °F 29.7 in SSW 2 mph 12 mph 87 % 0 in
00:57 55.2 °F 51.4 °F 29.7 in SW 6 mph 8 mph 87 % 0 in
01:02 55.2 °F 51.4 °F 29.7 in SSW 5 mph 8 mph 87 % 0 in
01:07 55.2 °F 51.4 °F 29.7 in SSW 8 mph 10 mph 87 % 0 in
01:12 55.2 °F 51.4 °F 29.7 in SSW 3 mph 10 mph 87 % 0 in
01:17 55 °F 51.3 °F 29.7 in SSW 2 mph 10 mph 87 % 0 in
01:22 54.9 °F 51.1 °F 29.7 in SW 3 mph 10 mph 87 % 0 in
01:32 54.7 °F 50.9 °F 29.7 in South 2 mph 10 mph 87 % 0 in
01:37 54.5 °F 51.1 °F 29.7 in Calm   8 mph 88 % 0 in
01:42 54.1 °F 50.7 °F 29.7 in Calm   8 mph 88 % 0 in
01:47 54 °F 50.7 °F 29.7 in SW 3 mph 5 mph 89 % 0 in
01:52 54 °F 50.7 °F 29.7 in SE 2 mph 5 mph 89 % 0 in
01:57 54 °F 50.7 °F 29.7 in South 2 mph 5 mph 89 % 0 in
02:02 54.1 °F 50.9 °F 29.7 in SSW 1 mph 5 mph 89 % 0 in
02:12 54.1 °F 50.9 °F 29.7 in SSW 1 mph 7 mph 89 % 0 in
02:17 54 °F 50.7 °F 29.7 in SSW 1 mph 7 mph 89 % 0 in
02:22 53.8 °F 50.5 °F 29.7 in SW 2 mph 6 mph 89 % 0 in
02:27 53.6 °F 50.7 °F 29.7 in SSW 2 mph 5 mph 90 % 0 in
02:32 54 °F 51.1 °F 29.7 in ESE 6 mph 6 mph 90 % 0 in
02:37 54.1 °F 50.9 °F 29.7 in SSW 2 mph 9 mph 89 % 0 in
02:42 54.3 °F 50.9 °F 29.7 in SSW 6 mph 9 mph 88 % 0 in
02:47 54.7 °F 51.3 °F 29.7 in SSW 4 mph 9 mph 88 % 0 in
02:52 54.7 °F 51.3 °F 29.7 in SSW 2 mph 9 mph 88 % 0 in
02:57 54.7 °F 51.3 °F 29.7 in South 2 mph 10 mph 88 % 0 in
03:02 54.7 °F 50.9 °F 29.7 in South 3 mph 10 mph 87 % 0 in
03:12 54.7 °F 51.3 °F 29.7 in SSW 3 mph 10 mph 88 % 0 in
03:17 54.5 °F 51.1 °F 29.7 in SSW 4 mph 8 mph 88 % 0 in
03:22 54.3 °F 50.9 °F 29.7 in SSW 4 mph 8 mph 88 % 0 in
03:27 54.3 °F 50.9 °F 29.7 in SSE 1 mph 7 mph 88 % 0 in
03:32 54.3 °F 50.9 °F 29.7 in SSW 4 mph 7 mph 88 % 0 in
03:42 54.7 °F 51.3 °F 29.7 in South 3 mph 7 mph 88 % 0 in
03:47 54.7 °F 51.3 °F 29.7 in SE 2 mph 7 mph 88 % 0 in
03:52 54.9 °F 51.1 °F 29.7 in SSW 1 mph 9 mph 87 % 0 in
03:57 54.7 °F 50.9 °F 29.7 in SSW 5 mph 9 mph 87 % 0 in
04:02 54.7 °F 50.9 °F 29.7 in SSW 3 mph 9 mph 87 % 0 in
04:12 54.7 °F 50.9 °F 29.7 in SW 6 mph 9 mph 87 % 0 in
04:17 54.9 °F 51.1 °F 29.7 in South 3 mph 14 mph 87 % 0 in
04:22 54.9 °F 51.1 °F 29.7 in SSE 4 mph 14 mph 87 % 0 in
04:32 55.6 °F 51.8 °F 29.7 in SSW 4 mph 11 mph 87 % 0 in
04:37 55.6 °F 51.8 °F 29.7 in SSW 5 mph 14 mph 87 % 0 in
04:42 55.6 °F 52.2 °F 29.7 in South 2 mph 14 mph 88 % 0 in
04:47 55.4 °F 52 °F 29.7 in South 2 mph 14 mph 88 % 0 in
04:52 55.2 °F 51.8 °F 29.7 in SW 3 mph 12 mph 88 % 0 in
04:57 55.2 °F 51.8 °F 29.7 in SSW 3 mph 12 mph 88 % 0 in
05:02 55 °F 51.6 °F 29.7 in SW 4 mph 11 mph 88 % 0 in
05:12 55 °F 51.8 °F 29.7 in SSW 6 mph 11 mph 89 % 0 in
05:22 54.9 °F 52 °F 29.7 in SSW 5 mph 9 mph 90 % 0 in
05:32 54.7 °F 52.2 °F 29.7 in SE 4 mph 9 mph 91 % 0.02 in
05:42 54.3 °F 52 °F 29.7 in SSW 5 mph 12 mph 92 % 0.03 in
05:47 54.3 °F 52 °F 29.7 in SSE 5 mph 12 mph 92 % 0.03 in
05:52 54.1 °F 51.8 °F 29.7 in SW 3 mph 11 mph 92 % 0.05 in
06:02 54.1 °F 52.2 °F 29.7 in ESE 3 mph 9 mph 93 % 0.06 in
06:07 54 °F 52 °F 29.7 in SSE 3 mph 9 mph 93 % 0.06 in
06:17 54 °F 52.3 °F 29.7 in SW 6 mph 10 mph 94 % 0.08 in
06:22 54 °F 52.3 °F 29.7 in SSE 5 mph 10 mph 94 % 0.07 in
06:27 54 °F 52.3 °F 29.7 in SSW 3 mph 11 mph 94 % 0.07 in
06:32 54 °F 52.3 °F 29.7 in South 6 mph 11 mph 94 % 0.07 in
06:37 54 °F 52.3 °F 29.7 in SSW 4 mph 11 mph 94 % 0.06 in
06:42 54 °F 52.3 °F 29.7 in SSE 3 mph 10 mph 94 % 0.06 in
06:47 54.1 °F 52.5 °F 29.7 in SW 7 mph 10 mph 94 % 0.06 in
06:52 54.1 °F 52.5 °F 29.7 in SSW 4 mph 11 mph 94 % 0.02 in
07:02 54.3 °F 52.7 °F 29.7 in SSE 5 mph 11 mph 94 % 0.02 in
07:07 54.5 °F 52.9 °F 29.7 in South 5 mph 11 mph 94 % 0.02 in
07:17 54.7 °F 53.1 °F 29.7 in SSW 6 mph 12 mph 94 % 0 in
07:22 54.7 °F 53.1 °F 29.7 in South 7 mph 10 mph 94 % 0 in
07:32 54.7 °F 53.1 °F 29.7 in SSW 2 mph 8 mph 94 % 0.01 in
07:37 54.7 °F 53.1 °F 29.7 in SW 5 mph 8 mph 94 % 0.01 in
07:42 54.9 °F 53.2 °F 29.7 in South 5 mph 10 mph 94 % 0.01 in
07:47 54.9 °F 53.2 °F 29.7 in SSW 3 mph 10 mph 94 % 0.01 in
07:52 54.9 °F 52.9 °F 29.7 in SSW 8 mph 10 mph 93 % 0.01 in
08:02 55 °F 53.1 °F 29.7 in SW 3 mph 12 mph 93 % 0.01 in
08:07 55.2 °F 53.2 °F 29.7 in SW 1 mph 12 mph 93 % 0.01 in
08:12 55.2 °F 53.2 °F 29.7 in South 4 mph 11 mph 93 % 0.01 in
08:17 55.2 °F 53.2 °F 29.7 in SSE 3 mph 11 mph 93 % 0.01 in
08:22 55.2 °F 53.2 °F 29.7 in SSE 7 mph 12 mph 93 % 0.01 in
08:32 55 °F 53.1 °F 29.7 in SSW 3 mph 12 mph 93 % 0.02 in
08:42 55 °F 53.1 °F 29.7 in WSW 5 mph 11 mph 93 % 0.03 in
08:47 54.9 °F 52.9 °F 29.7 in SE 3 mph 11 mph 93 % 0.03 in
08:52 54.9 °F 52.9 °F 29.7 in WSW 3 mph 12 mph 93 % 0.04 in
09:02 54.9 °F 53.2 °F 29.7 in South 3 mph 12 mph 94 % 0.06 in
09:12 55 °F 53.4 °F 29.7 in SSW 4 mph 12 mph 94 % 0.06 in
09:22 55 °F 53.4 °F 29.7 in SSE 6 mph 10 mph 94 % 0.06 in
09:32 55.2 °F 53.6 °F 29.7 in SE 3 mph 10 mph 94 % 0.06 in
09:37 55.2 °F 53.6 °F 29.7 in SE 7 mph 10 mph 94 % 0.06 in
09:42 55.2 °F 53.6 °F 29.7 in ESE 6 mph 12 mph 94 % 0.05 in
09:47 55.2 °F 53.6 °F 29.7 in South 7 mph 12 mph 94 % 0.05 in
09:52 55.2 °F 53.6 °F 29.7 in SSW 1 mph 12 mph 94 % 0.04 in
10:02 55.2 °F 53.6 °F 29.7 in SSW 9 mph 11 mph 94 % 0.04 in
10:12 55.2 °F 53.6 °F 29.7 in SSW 7 mph 12 mph 94 % 0.06 in
10:17 55.2 °F 53.8 °F 29.7 in SSW 6 mph 12 mph 95 % 0.06 in
10:27 55.6 °F 54.1 °F 29.7 in SSW 6 mph 12 mph 95 % 0.05 in
10:32 55.8 °F 54.3 °F 29.7 in SW 8 mph 15 mph 95 % 0.04 in
10:42 56.7 °F 55.2 °F 29.7 in SW 13 mph 15 mph 95 % 0.03 in
10:47 57 °F 55.2 °F 29.7 in SW 9 mph 15 mph 94 % 0.03 in
10:52 57.2 °F 55.2 °F 29.7 in SSW 9 mph 15 mph 93 % 0.02 in
10:57 57.4 °F 55.4 °F 29.7 in South 6 mph 15 mph 93 % 0.02 in
11:02 57.4 °F 55.4 °F 29.7 in SW 10 mph 15 mph 93 % 0.02 in
11:12 57.4 °F 55.4 °F 29.7 in WSW 7 mph 15 mph 93 % 0 in
11:17 57.4 °F 55.4 °F 29.7 in SSW 6 mph 15 mph 93 % 0 in
11:22 57.6 °F 55.6 °F 29.7 in SW 7 mph 14 mph 93 % 0 in
11:32 58.3 °F 55.9 °F 29.7 in SW 9 mph 19 mph 92 % 0 in
11:37 58.5 °F 55.6 °F 29.7 in WSW 11 mph 19 mph 90 % 0 in
11:42 58.5 °F 55.8 °F 29.7 in SW 11 mph 20 mph 91 % 0 in
11:47 58.5 °F 55.6 °F 29.7 in WSW 8 mph 20 mph 90 % 0 in
11:52 58.6 °F 55.8 °F 29.7 in WSW 5 mph 21 mph 90 % 0 in
11:57 58.5 °F 55.6 °F 29.7 in South 15 mph 21 mph 90 % 0 in
12:02 57.9 °F 55.2 °F 29.7 in SSW 3 mph 16 mph 91 % 0.01 in
12:12 57.4 °F 55.4 °F 29.7 in SW 16 mph 16 mph 93 % 0.11 in
12:17 57.6 °F 55.8 °F 29.7 in WSW 9 mph 15 mph 94 % 0.11 in
12:22 57.9 °F 56.1 °F 29.7 in SW 10 mph 15 mph 94 % 0.13 in
12:32 58.6 °F 55.9 °F 29.7 in SSW 7 mph 16 mph 91 % 0.13 in
12:37 59 °F 56.7 °F 29.7 in South 7 mph 16 mph 92 % 0.13 in
12:42 58.6 °F 55.9 °F 29.7 in SW 11 mph 16 mph 91 % 0.13 in
12:47 57.7 °F 55.2 °F 29.7 in SW 13 mph 16 mph 91 % 0.13 in
12:52 57.4 °F 55 °F 29.7 in WSW 10 mph 16 mph 92 % 0.15 in
12:57 57.4 °F 55 °F 29.7 in WSW 6 mph 21 mph 92 % 0.15 in
13:02 57.6 °F 55 °F 29.7 in West 8 mph 21 mph 91 % 0.15 in
13:12 58.6 °F 56.3 °F 29.7 in SW 8 mph 18 mph 92 % 0.09 in
13:17 59 °F 56.1 °F 29.7 in West 3 mph 18 mph 90 % 0.09 in
13:22 60.1 °F 57.4 °F 29.7 in South 4 mph 16 mph 91 % 0.02 in
13:32 61 °F 56.8 °F 29.7 in WSW 4 mph 18 mph 86 % 0.02 in
13:37 59.9 °F 55 °F 29.8 in SW 8 mph 18 mph 84 % 0.02 in
13:42 58.8 °F 55 °F 29.7 in West 10 mph 17 mph 87 % 0.02 in
13:52 58.5 °F 55.6 °F 29.8 in WSW 3 mph 15 mph 90 % 0 in
13:57 58.8 °F 56.1 °F 29.7 in WSW 7 mph 15 mph 91 % 0 in
14:02 59.4 °F 56.5 °F 29.7 in WSW 9 mph 10 mph 90 % 0 in
14:12 60.3 °F 56.1 °F 29.7 in West 4 mph 12 mph 86 % 0 in
14:17 59.2 °F 54.7 °F 29.7 in West 6 mph 12 mph 85 % 0 in
14:22 58.6 °F 55 °F 29.7 in West 13 mph 25 mph 88 % 0 in
14:32 57.9 °F 55.2 °F 29.8 in West 4 mph 23 mph 91 % 0.01 in
14:42 59.5 °F 56.7 °F 29.8 in WSW 8 mph 12 mph 90 % 0.01 in
14:52 61 °F 57 °F 29.8 in West 7 mph 18 mph 87 % 0.01 in
14:57 61 °F 56.1 °F 29.8 in WSW 7 mph 18 mph 84 % 0.01 in
15:02 60.6 °F 55.4 °F 29.8 in WSW 5 mph 19 mph 83 % 0.01 in
15:12 59.4 °F 55.4 °F 29.8 in WSW 8 mph 16 mph 87 % 0.02 in
15:22 58.8 °F 55.6 °F 29.8 in SW 6 mph 13 mph 89 % 0.04 in
15:32 59 °F 56.1 °F 29.8 in SSW 3 mph 14 mph 90 % 0.05 in
15:37 59.7 °F 56.5 °F 29.8 in SW 6 mph 14 mph 89 % 0.05 in
15:42 60.8 °F 56.8 °F 29.8 in WSW 8 mph 14 mph 87 % 0.05 in
15:52 61.9 °F 57.4 °F 29.8 in SW 7 mph 13 mph 85 % 0.05 in
15:57 61.5 °F 56.3 °F 29.8 in SSW 10 mph 15 mph 83 % 0.05 in
16:02 61.3 °F 56.8 °F 29.8 in West 4 mph 17 mph 85 % 0.05 in
16:07 60.8 °F 56.7 °F 29.8 in NW 4 mph 17 mph 86 % 0.05 in
16:12 60.4 °F 55.9 °F 29.8 in WSW 6 mph 17 mph 85 % 0.05 in
16:17 59.7 °F 55.8 °F 29.8 in SW 8 mph 16 mph 87 % 0.02 in
16:22 59.5 °F 55.9 °F 29.8 in WSW 4 mph 14 mph 88 % 0.03 in
16:27 60.3 °F 56.7 °F 29.8 in West 6 mph 13 mph 88 % 0.02 in
16:32 61.2 °F 57 °F 29.8 in WSW 5 mph 13 mph 86 % 0.02 in
16:42 61.2 °F 55.9 °F 29.8 in West 5 mph 15 mph 83 % 0.02 in
16:52 61.9 °F 56.3 °F 29.8 in West 6 mph 17 mph 82 % 0.02 in
16:57 62.6 °F 57.7 °F 29.8 in WNW 11 mph 13 mph 84 % 0.02 in
17:02 62.8 °F 56.1 °F 29.8 in WSW 8 mph 16 mph 79 % 0.02 in
17:12 59.5 °F 53.1 °F 29.8 in West 15 mph 17 mph 79 % 0.02 in
17:17 58.5 °F 52.7 °F 29.8 in WNW 9 mph 21 mph 81 % 0.02 in
17:22 57.7 °F 52.7 °F 29.8 in West 6 mph 21 mph 83 % 0 in
17:27 57.4 °F 52.9 °F 29.8 in West 4 mph 21 mph 85 % 0 in
17:32 57 °F 52.9 °F 29.8 in WNW 4 mph 19 mph 86 % 0 in
17:42 57.7 °F 54.1 °F 29.8 in WNW 6 mph 16 mph 88 % 0 in
17:47 58.5 °F 54.7 °F 29.8 in NW 4 mph 10 mph 87 % 0 in
17:52 59.7 °F 55.2 °F 29.8 in WSW 9 mph 10 mph 85 % 0 in
17:57 60.4 °F 54.9 °F 29.8 in West 14 mph 14 mph 82 % 0 in
18:07 61.2 °F 55.6 °F 29.8 in West 6 mph 17 mph 82 % 0 in
18:12 61.3 °F 55.8 °F 29.8 in West 4 mph 17 mph 82 % 0 in
18:17 61.3 °F 55.4 °F 29.8 in West 7 mph 14 mph 81 % 0 in
18:22 61.5 °F 55.6 °F 29.8 in WSW 11 mph 14 mph 81 % 0 in
18:27 61.3 °F 55 °F 29.8 in NW 8 mph 14 mph 80 % 0 in
18:32 61 °F 54.5 °F 29.8 in West 8 mph 14 mph 79 % 0 in
18:42 60.6 °F 55 °F 29.8 in WSW 12 mph 19 mph 82 % 0 in
18:47 60.8 °F 54.9 °F 29.8 in West 10 mph 19 mph 81 % 0 in
18:57 60.4 °F 54 °F 29.8 in WNW 8 mph 17 mph 79 % 0 in
19:02 60.4 °F 54.5 °F 29.8 in West 5 mph 18 mph 81 % 0 in
19:12 60.3 °F 53.8 °F 29.8 in South 3 mph 18 mph 79 % 0 in
19:17 60.1 °F 53.6 °F 29.8 in SW 9 mph 15 mph 79 % 0 in
19:22 60.3 °F 54.1 °F 29.8 in WSW 5 mph 15 mph 80 % 0 in
19:32 60.1 °F 54.3 °F 29.8 in SSE 5 mph 15 mph 81 % 0 in
19:42 59.7 °F 54.1 °F 29.8 in SW 6 mph 12 mph 82 % 0 in
19:47 59.5 °F 54 °F 29.8 in West 8 mph 13 mph 82 % 0 in
19:52 59.4 °F 54.1 °F 29.8 in WSW 5 mph 13 mph 83 % 0 in
19:57 59.2 °F 54 °F 29.8 in WSW 9 mph 13 mph 83 % 0 in
20:02 59.4 °F 54.1 °F 29.8 in West 3 mph 14 mph 83 % 0 in
20:12 59.5 °F 54 °F 29.8 in West 7 mph 14 mph 82 % 0 in
20:17 59.5 °F 54 °F 29.8 in WSW 6 mph 13 mph 82 % 0 in
20:22 59.5 °F 54 °F 29.8 in WSW 5 mph 13 mph 82 % 0 in
20:32 59.5 °F 54 °F 29.8 in WSW 5 mph 12 mph 82 % 0 in
20:37 59.5 °F 54 °F 29.8 in WSW 9 mph 13 mph 82 % 0 in
20:42 59.4 °F 53.8 °F 29.8 in WSW 4 mph 13 mph 82 % 0 in
20:47 59.4 °F 53.8 °F 29.8 in WSW 10 mph 12 mph 82 % 0 in
20:52 59.2 °F 53.6 °F 29.8 in SW 3 mph 10 mph 82 % 0 in
21:02 59 °F 53.8 °F 29.8 in West 4 mph 11 mph 83 % 0 in
21:12 58.1 °F 53.6 °F 29.9 in WSW 8 mph 10 mph 85 % 0 in
21:17 57.2 °F 53.1 °F 29.9 in West 6 mph 16 mph 86 % 0 in
21:22 56.7 °F 53.1 °F 29.9 in SW 6 mph 17 mph 88 % 0 in
21:32 55.9 °F 53.1 °F 29.9 in WSW 6 mph 18 mph 90 % 0 in
21:42 55.9 °F 53.1 °F 29.9 in WSW 7 mph 12 mph 90 % 0 in
21:52 55.9 °F 53.1 °F 29.9 in SSW 2 mph 9 mph 90 % 0 in
21:57 55.9 °F 53.1 °F 29.9 in SSW 4 mph 8 mph 90 % 0 in
22:02 55.9 °F 53.1 °F 29.9 in WSW 4 mph 6 mph 90 % 0 in
22:12 55.9 °F 53.1 °F 29.9 in SW 3 mph 6 mph 90 % 0 in
22:17 56.1 °F 53.2 °F 29.9 in SW 3 mph 7 mph 90 % 0 in
22:22 56.1 °F 53.2 °F 29.9 in West 5 mph 7 mph 90 % 0 in
22:27 56.1 °F 53.2 °F 29.9 in SW 4 mph 7 mph 90 % 0 in
22:32 56.1 °F 53.6 °F 29.9 in SW 2 mph 8 mph 91 % 0 in
22:37 56.1 °F 53.6 °F 29.9 in West 3 mph 8 mph 91 % 0 in
22:42 56.1 °F 53.6 °F 29.9 in SW 2 mph 8 mph 91 % 0 in
22:52 56.1 °F 53.6 °F 29.9 in WSW 2 mph 7 mph 91 % 0 in
22:57 55.9 °F 53.4 °F 29.9 in SW 2 mph 6 mph 91 % 0 in
23:02 55.9 °F 53.6 °F 29.9 in SW 4 mph 6 mph 92 % 0 in
23:07 55.9 °F 53.6 °F 29.9 in SW 4 mph 6 mph 92 % 0 in
23:12 55.9 °F 53.6 °F 29.9 in SW 2 mph 6 mph 92 % 0 in
23:17 55.9 °F 53.4 °F 29.9 in SW 7 mph 7 mph 91 % 0 in
23:22 55.9 °F 53.4 °F 29.9 in SW 7 mph 7 mph 91 % 0 in
23:32 55.8 °F 52.9 °F 29.9 in SW 5 mph 11 mph 90 % 0 in
23:37 55.8 °F 52.9 °F 29.9 in SW 9 mph 12 mph 90 % 0 in
23:42 55.8 °F 52.9 °F 29.9 in South 4 mph 12 mph 90 % 0 in
23:47 55.6 °F 52.7 °F 29.9 in WSW 2 mph 11 mph 90 % 0 in
23:52 55.6 °F 53.1 °F 29.9 in SW 4 mph 11 mph 91 % 0 in
23:57 55.6 °F 53.1 °F 29.9 in SSW 3 mph 11 mph 91 % 0 in
Meteo18
Compliments of Weather Underground - 4 mb

Script developed by  Jim McMurry - jmcmurry@mwt.net Adapted for the template by  Wim van der Kuil - Leuven-Template.eu

You find our weather info also at:

European Weather Network

Weather Underground

Equipment we use:

Weather-station
Davis Vue

Weather-program
Meteohub

Weather-server
Raspberry PI 2 B+

Provider
1 and 1

Davis Vue

Meteohub

Raspberry PI 2 B+

1 and 1